sensor_id;sensor_type;location;lat;lon;timestamp;P1;durP1;ratioP1;P2;durP2;ratioP2
17650;SDS011;26663;59.302;18.082;2023-09-19T00:01:49;13.23;;;5.70;;
17650;SDS011;26663;59.302;18.082;2023-09-19T00:04:54;7.57;;;5.38;;
17650;SDS011;26663;59.302;18.082;2023-09-19T00:07:58;8.73;;;5.35;;
17650;SDS011;26663;59.302;18.082;2023-09-19T00:11:02;10.18;;;6.25;;
17650;SDS011;26663;59.302;18.082;2023-09-19T00:14:07;9.32;;;5.97;;
17650;SDS011;26663;59.302;18.082;2023-09-19T00:17:11;8.50;;;6.10;;
17650;SDS011;26663;59.302;18.082;2023-09-19T00:20:15;9.15;;;6.30;;
17650;SDS011;26663;59.302;18.082;2023-09-19T00:23:19;6.72;;;5.90;;
17650;SDS011;26663;59.302;18.082;2023-09-19T00:26:24;13.57;;;6.90;;
17650;SDS011;26663;59.302;18.082;2023-09-19T00:29:30;9.88;;;6.50;;
17650;SDS011;26663;59.302;18.082;2023-09-19T00:32:35;10.45;;;6.78;;
17650;SDS011;26663;59.302;18.082;2023-09-19T00:35:40;11.15;;;6.82;;
17650;SDS011;26663;59.302;18.082;2023-09-19T00:38:51;21.77;;;7.40;;
17650;SDS011;26663;59.302;18.082;2023-09-19T00:41:56;10.00;;;7.05;;
17650;SDS011;26663;59.302;18.082;2023-09-19T00:45:01;14.38;;;7.80;;
17650;SDS011;26663;59.302;18.082;2023-09-19T00:48:05;12.98;;;7.15;;
17650;SDS011;26663;59.302;18.082;2023-09-19T00:51:11;11.93;;;7.93;;
17650;SDS011;26663;59.302;18.082;2023-09-19T00:54:16;11.63;;;8.07;;
17650;SDS011;26663;59.302;18.082;2023-09-19T00:57:21;15.90;;;7.85;;
17650;SDS011;26663;59.302;18.082;2023-09-19T01:00:26;11.73;;;8.45;;
17650;SDS011;26663;59.302;18.082;2023-09-19T01:03:30;14.18;;;7.97;;
17650;SDS011;26663;59.302;18.082;2023-09-19T01:06:35;15.93;;;7.85;;
17650;SDS011;26663;59.302;18.082;2023-09-19T01:09:41;12.32;;;8.10;;
17650;SDS011;26663;59.302;18.082;2023-09-19T01:12:48;13.80;;;8.00;;
17650;SDS011;26663;59.302;18.082;2023-09-19T01:15:59;11.20;;;8.32;;
17650;SDS011;26663;59.302;18.082;2023-09-19T01:19:13;11.30;;;7.53;;
17650;SDS011;26663;59.302;18.082;2023-09-19T01:22:35;9.13;;;7.18;;
17650;SDS011;26663;59.302;18.082;2023-09-19T01:26:06;13.85;;;8.60;;
17650;SDS011;26663;59.302;18.082;2023-09-19T01:29:13;19.70;;;8.15;;
17650;SDS011;26663;59.302;18.082;2023-09-19T01:32:33;13.68;;;7.63;;
17650;SDS011;26663;59.302;18.082;2023-09-19T01:35:37;14.95;;;8.95;;
17650;SDS011;26663;59.302;18.082;2023-09-19T01:38:41;12.63;;;8.80;;
17650;SDS011;26663;59.302;18.082;2023-09-19T01:41:47;16.48;;;8.30;;
17650;SDS011;26663;59.302;18.082;2023-09-19T01:44:59;12.45;;;8.40;;
17650;SDS011;26663;59.302;18.082;2023-09-19T01:48:12;12.88;;;8.00;;
17650;SDS011;26663;59.302;18.082;2023-09-19T01:51:22;9.90;;;7.82;;
17650;SDS011;26663;59.302;18.082;2023-09-19T01:54:33;14.23;;;8.38;;
17650;SDS011;26663;59.302;18.082;2023-09-19T01:57:48;12.45;;;8.65;;
17650;SDS011;26663;59.302;18.082;2023-09-19T02:00:55;17.40;;;8.73;;
17650;SDS011;26663;59.302;18.082;2023-09-19T02:04:01;15.85;;;9.30;;
17650;SDS011;26663;59.302;18.082;2023-09-19T02:07:06;15.20;;;9.32;;
17650;SDS011;26663;59.302;18.082;2023-09-19T02:10:10;15.20;;;8.77;;
17650;SDS011;26663;59.302;18.082;2023-09-19T02:13:15;13.57;;;9.38;;
17650;SDS011;26663;59.302;18.082;2023-09-19T02:16:21;13.98;;;9.30;;
17650;SDS011;26663;59.302;18.082;2023-09-19T02:19:26;11.20;;;8.98;;
17650;SDS011;26663;59.302;18.082;2023-09-19T02:22:32;15.10;;;10.02;;
17650;SDS011;26663;59.302;18.082;2023-09-19T02:25:35;15.45;;;9.73;;
17650;SDS011;26663;59.302;18.082;2023-09-19T02:28:41;17.83;;;10.52;;
17650;SDS011;26663;59.302;18.082;2023-09-19T02:31:45;15.45;;;9.95;;
17650;SDS011;26663;59.302;18.082;2023-09-19T02:34:51;18.75;;;10.13;;
17650;SDS011;26663;59.302;18.082;2023-09-19T02:37:56;20.20;;;10.35;;
17650;SDS011;26663;59.302;18.082;2023-09-19T02:41:00;19.52;;;10.63;;
17650;SDS011;26663;59.302;18.082;2023-09-19T02:44:04;19.08;;;10.77;;
17650;SDS011;26663;59.302;18.082;2023-09-19T02:47:09;15.13;;;11.27;;
17650;SDS011;26663;59.302;18.082;2023-09-19T02:50:15;20.35;;;11.57;;
17650;SDS011;26663;59.302;18.082;2023-09-19T02:53:19;19.58;;;11.63;;
17650;SDS011;26663;59.302;18.082;2023-09-19T02:56:24;21.35;;;11.85;;
17650;SDS011;26663;59.302;18.082;2023-09-19T02:59:28;21.05;;;12.75;;
17650;SDS011;26663;59.302;18.082;2023-09-19T03:02:33;20.40;;;12.70;;
17650;SDS011;26663;59.302;18.082;2023-09-19T03:05:39;21.48;;;12.43;;
17650;SDS011;26663;59.302;18.082;2023-09-19T03:08:43;20.92;;;13.23;;
17650;SDS011;26663;59.302;18.082;2023-09-19T03:11:47;21.20;;;13.38;;
17650;SDS011;26663;59.302;18.082;2023-09-19T03:14:52;26.30;;;13.13;;
17650;SDS011;26663;59.302;18.082;2023-09-19T03:17:56;19.73;;;12.77;;
17650;SDS011;26663;59.302;18.082;2023-09-19T03:21:03;23.50;;;14.32;;
17650;SDS011;26663;59.302;18.082;2023-09-19T03:24:07;25.35;;;13.23;;
17650;SDS011;26663;59.302;18.082;2023-09-19T03:27:11;23.08;;;13.00;;
17650;SDS011;26663;59.302;18.082;2023-09-19T03:30:16;27.67;;;13.88;;
17650;SDS011;26663;59.302;18.082;2023-09-19T03:33:20;20.20;;;12.93;;
17650;SDS011;26663;59.302;18.082;2023-09-19T03:36:26;28.25;;;13.85;;
17650;SDS011;26663;59.302;18.082;2023-09-19T03:39:32;26.38;;;13.85;;
17650;SDS011;26663;59.302;18.082;2023-09-19T03:42:37;25.77;;;14.13;;
17650;SDS011;26663;59.302;18.082;2023-09-19T03:45:43;26.17;;;14.68;;
17650;SDS011;26663;59.302;18.082;2023-09-19T03:48:49;25.08;;;14.10;;
17650;SDS011;26663;59.302;18.082;2023-09-19T03:51:54;23.02;;;14.45;;
17650;SDS011;26663;59.302;18.082;2023-09-19T03:54:58;23.38;;;14.23;;
17650;SDS011;26663;59.302;18.082;2023-09-19T03:58:03;27.98;;;15.07;;
17650;SDS011;26663;59.302;18.082;2023-09-19T04:01:07;29.08;;;15.10;;
17650;SDS011;26663;59.302;18.082;2023-09-19T04:04:11;24.80;;;14.82;;
17650;SDS011;26663;59.302;18.082;2023-09-19T04:07:18;26.08;;;14.63;;
17650;SDS011;26663;59.302;18.082;2023-09-19T04:10:25;27.65;;;16.10;;
17650;SDS011;26663;59.302;18.082;2023-09-19T04:13:29;26.05;;;14.60;;
17650;SDS011;26663;59.302;18.082;2023-09-19T04:16:33;32.40;;;16.73;;
17650;SDS011;26663;59.302;18.082;2023-09-19T04:19:37;27.65;;;15.20;;
17650;SDS011;26663;59.302;18.082;2023-09-19T04:22:42;22.80;;;14.82;;
17650;SDS011;26663;59.302;18.082;2023-09-19T04:25:46;23.90;;;15.50;;
17650;SDS011;26663;59.302;18.082;2023-09-19T04:28:50;39.72;;;15.75;;
17650;SDS011;26663;59.302;18.082;2023-09-19T04:31:54;26.20;;;15.13;;
17650;SDS011;26663;59.302;18.082;2023-09-19T04:34:58;25.88;;;15.50;;
17650;SDS011;26663;59.302;18.082;2023-09-19T04:38:05;27.63;;;14.90;;
17650;SDS011;26663;59.302;18.082;2023-09-19T04:41:09;26.55;;;15.98;;
17650;SDS011;26663;59.302;18.082;2023-09-19T04:44:13;35.47;;;16.27;;
17650;SDS011;26663;59.302;18.082;2023-09-19T04:47:17;30.88;;;16.63;;
17650;SDS011;26663;59.302;18.082;2023-09-19T04:50:21;27.13;;;16.33;;
17650;SDS011;26663;59.302;18.082;2023-09-19T04:53:27;26.98;;;16.67;;
17650;SDS011;26663;59.302;18.082;2023-09-19T04:56:31;33.55;;;17.13;;
17650;SDS011;26663;59.302;18.082;2023-09-19T04:59:35;32.60;;;17.95;;
17650;SDS011;26663;59.302;18.082;2023-09-19T05:02:39;29.33;;;16.70;;
17650;SDS011;26663;59.302;18.082;2023-09-19T05:05:43;26.15;;;16.42;;
17650;SDS011;26663;59.302;18.082;2023-09-19T05:08:49;27.42;;;16.02;;
17650;SDS011;26663;59.302;18.082;2023-09-19T05:11:54;29.73;;;17.17;;
17650;SDS011;26663;59.302;18.082;2023-09-19T05:14:58;27.65;;;16.88;;
17650;SDS011;26663;59.302;18.082;2023-09-19T05:18:03;25.70;;;16.88;;
17650;SDS011;26663;59.302;18.082;2023-09-19T05:21:08;27.45;;;16.35;;
17650;SDS011;26663;59.302;18.082;2023-09-19T05:24:13;25.45;;;16.33;;
17650;SDS011;26663;59.302;18.082;2023-09-19T05:27:19;23.13;;;16.63;;
17650;SDS011;26663;59.302;18.082;2023-09-19T05:30:23;31.73;;;16.17;;
17650;SDS011;26663;59.302;18.082;2023-09-19T05:33:27;28.10;;;17.63;;
17650;SDS011;26663;59.302;18.082;2023-09-19T05:36:32;27.83;;;17.10;;
17650;SDS011;26663;59.302;18.082;2023-09-19T05:39:38;26.58;;;16.70;;
17650;SDS011;26663;59.302;18.082;2023-09-19T05:42:42;29.88;;;18.45;;
17650;SDS011;26663;59.302;18.082;2023-09-19T05:45:46;24.08;;;17.25;;
17650;SDS011;26663;59.302;18.082;2023-09-19T05:48:50;25.17;;;16.73;;
17650;SDS011;26663;59.302;18.082;2023-09-19T05:51:54;32.28;;;16.92;;
17650;SDS011;26663;59.302;18.082;2023-09-19T05:55:00;22.58;;;16.27;;
17650;SDS011;26663;59.302;18.082;2023-09-19T05:58:03;28.92;;;16.52;;
17650;SDS011;26663;59.302;18.082;2023-09-19T06:01:07;25.17;;;16.33;;
17650;SDS011;26663;59.302;18.082;2023-09-19T06:04:11;31.10;;;18.08;;
17650;SDS011;26663;59.302;18.082;2023-09-19T06:07:15;23.80;;;16.85;;
17650;SDS011;26663;59.302;18.082;2023-09-19T06:10:20;28.15;;;18.15;;
17650;SDS011;26663;59.302;18.082;2023-09-19T06:13:27;30.67;;;18.02;;
17650;SDS011;26663;59.302;18.082;2023-09-19T06:16:31;29.92;;;18.70;;
17650;SDS011;26663;59.302;18.082;2023-09-19T06:19:35;35.05;;;18.30;;
17650;SDS011;26663;59.302;18.082;2023-09-19T06:22:39;29.58;;;18.75;;
17650;SDS011;26663;59.302;18.082;2023-09-19T06:25:45;27.98;;;17.55;;
17650;SDS011;26663;59.302;18.082;2023-09-19T06:28:50;25.23;;;18.00;;
17650;SDS011;26663;59.302;18.082;2023-09-19T06:31:54;26.77;;;17.65;;
17650;SDS011;26663;59.302;18.082;2023-09-19T06:34:58;28.55;;;18.60;;
17650;SDS011;26663;59.302;18.082;2023-09-19T06:38:02;29.83;;;18.45;;
17650;SDS011;26663;59.302;18.082;2023-09-19T06:41:08;26.20;;;18.20;;
17650;SDS011;26663;59.302;18.082;2023-09-19T06:44:12;30.38;;;18.02;;
17650;SDS011;26663;59.302;18.082;2023-09-19T06:47:18;27.73;;;17.38;;
17650;SDS011;26663;59.302;18.082;2023-09-19T06:50:23;25.58;;;18.17;;
17650;SDS011;26663;59.302;18.082;2023-09-19T06:53:27;27.63;;;17.73;;
17650;SDS011;26663;59.302;18.082;2023-09-19T06:56:35;32.97;;;18.73;;
17650;SDS011;26663;59.302;18.082;2023-09-19T06:59:39;28.45;;;18.50;;
17650;SDS011;26663;59.302;18.082;2023-09-19T07:02:43;28.02;;;19.00;;
17650;SDS011;26663;59.302;18.082;2023-09-19T07:05:47;33.25;;;18.23;;
17650;SDS011;26663;59.302;18.082;2023-09-19T07:08:51;22.55;;;16.83;;
17650;SDS011;26663;59.302;18.082;2023-09-19T07:11:56;24.52;;;16.27;;
17650;SDS011;26663;59.302;18.082;2023-09-19T07:15:00;20.42;;;14.98;;
17650;SDS011;26663;59.302;18.082;2023-09-19T07:18:04;19.70;;;14.10;;
17650;SDS011;26663;59.302;18.082;2023-09-19T07:21:09;16.40;;;13.85;;
17650;SDS011;26663;59.302;18.082;2023-09-19T07:24:13;16.42;;;14.25;;
17650;SDS011;26663;59.302;18.082;2023-09-19T07:27:18;17.65;;;13.43;;
17650;SDS011;26663;59.302;18.082;2023-09-19T07:30:22;20.20;;;14.13;;
17650;SDS011;26663;59.302;18.082;2023-09-19T07:33:26;20.92;;;15.93;;
17650;SDS011;26663;59.302;18.082;2023-09-19T07:36:30;27.60;;;16.95;;
17650;SDS011;26663;59.302;18.082;2023-09-19T07:39:34;26.05;;;17.73;;
17650;SDS011;26663;59.302;18.082;2023-09-19T07:42:39;25.42;;;17.45;;
17650;SDS011;26663;59.302;18.082;2023-09-19T07:45:43;28.35;;;18.50;;
17650;SDS011;26663;59.302;18.082;2023-09-19T07:48:47;31.05;;;18.67;;
17650;SDS011;26663;59.302;18.082;2023-09-19T07:51:51;23.17;;;17.88;;
17650;SDS011;26663;59.302;18.082;2023-09-19T07:54:57;30.10;;;18.80;;
17650;SDS011;26663;59.302;18.082;2023-09-19T07:58:05;30.15;;;18.27;;
17650;SDS011;26663;59.302;18.082;2023-09-19T08:01:09;32.67;;;19.45;;
17650;SDS011;26663;59.302;18.082;2023-09-19T08:04:14;33.88;;;19.33;;
17650;SDS011;26663;59.302;18.082;2023-09-19T08:07:18;30.77;;;19.23;;
17650;SDS011;26663;59.302;18.082;2023-09-19T08:10:22;29.20;;;18.33;;
17650;SDS011;26663;59.302;18.082;2023-09-19T08:13:31;29.10;;;18.95;;
17650;SDS011;26663;59.302;18.082;2023-09-19T08:16:35;29.50;;;18.67;;
17650;SDS011;26663;59.302;18.082;2023-09-19T08:19:39;31.35;;;17.60;;
17650;SDS011;26663;59.302;18.082;2023-09-19T08:22:46;28.27;;;17.35;;
17650;SDS011;26663;59.302;18.082;2023-09-19T08:25:55;30.77;;;17.52;;
17650;SDS011;26663;59.302;18.082;2023-09-19T08:29:01;28.77;;;16.88;;
17650;SDS011;26663;59.302;18.082;2023-09-19T08:32:09;25.45;;;16.88;;
17650;SDS011;26663;59.302;18.082;2023-09-19T08:35:13;24.13;;;16.33;;
17650;SDS011;26663;59.302;18.082;2023-09-19T08:38:17;29.85;;;17.15;;
17650;SDS011;26663;59.302;18.082;2023-09-19T08:41:20;25.02;;;16.67;;
17650;SDS011;26663;59.302;18.082;2023-09-19T08:44:25;27.60;;;16.48;;
17650;SDS011;26663;59.302;18.082;2023-09-19T08:47:33;23.83;;;16.95;;
17650;SDS011;26663;59.302;18.082;2023-09-19T08:50:39;25.60;;;16.33;;
17650;SDS011;26663;59.302;18.082;2023-09-19T08:53:47;22.77;;;15.52;;
17650;SDS011;26663;59.302;18.082;2023-09-19T08:56:55;22.83;;;15.02;;
17650;SDS011;26663;59.302;18.082;2023-09-19T09:00:02;25.30;;;15.52;;
17650;SDS011;26663;59.302;18.082;2023-09-19T09:03:08;23.85;;;15.18;;
17650;SDS011;26663;59.302;18.082;2023-09-19T09:06:13;21.48;;;14.80;;
17650;SDS011;26663;59.302;18.082;2023-09-19T09:09:19;22.35;;;14.32;;
17650;SDS011;26663;59.302;18.082;2023-09-19T09:12:23;21.13;;;14.35;;
17650;SDS011;26663;59.302;18.082;2023-09-19T09:15:29;25.58;;;13.75;;
17650;SDS011;26663;59.302;18.082;2023-09-19T09:18:35;17.50;;;13.05;;
17650;SDS011;26663;59.302;18.082;2023-09-19T09:21:39;15.82;;;12.45;;
17650;SDS011;26663;59.302;18.082;2023-09-19T09:24:50;18.70;;;12.45;;
17650;SDS011;26663;59.302;18.082;2023-09-19T09:27:59;17.08;;;12.40;;
17650;SDS011;26663;59.302;18.082;2023-09-19T09:31:05;17.02;;;11.55;;
17650;SDS011;26663;59.302;18.082;2023-09-19T09:34:11;15.40;;;10.52;;
17650;SDS011;26663;59.302;18.082;2023-09-19T09:37:16;15.27;;;9.82;;
17650;SDS011;26663;59.302;18.082;2023-09-19T09:40:21;16.73;;;10.07;;
17650;SDS011;26663;59.302;18.082;2023-09-19T09:43:40;17.42;;;9.35;;
17650;SDS011;26663;59.302;18.082;2023-09-19T09:46:50;13.70;;;9.10;;
17650;SDS011;26663;59.302;18.082;2023-09-19T09:50:01;13.55;;;8.90;;
17650;SDS011;26663;59.302;18.082;2023-09-19T09:53:19;13.32;;;8.98;;
17650;SDS011;26663;59.302;18.082;2023-09-19T09:56:24;10.35;;;8.40;;
17650;SDS011;26663;59.302;18.082;2023-09-19T09:59:48;14.38;;;8.68;;
17650;SDS011;26663;59.302;18.082;2023-09-19T10:02:55;11.60;;;8.32;;
17650;SDS011;26663;59.302;18.082;2023-09-19T10:05:59;12.85;;;8.00;;
17650;SDS011;26663;59.302;18.082;2023-09-19T10:09:13;11.52;;;7.85;;
17650;SDS011;26663;59.302;18.082;2023-09-19T10:12:18;10.98;;;7.20;;
17650;SDS011;26663;59.302;18.082;2023-09-19T10:15:24;9.82;;;7.50;;
17650;SDS011;26663;59.302;18.082;2023-09-19T10:18:33;10.15;;;7.65;;
17650;SDS011;26663;59.302;18.082;2023-09-19T10:21:41;13.18;;;7.85;;
17650;SDS011;26663;59.302;18.082;2023-09-19T10:24:45;9.13;;;6.75;;
17650;SDS011;26663;59.302;18.082;2023-09-19T10:28:05;15.95;;;7.70;;
17650;SDS011;26663;59.302;18.082;2023-09-19T10:31:15;9.80;;;7.60;;
17650;SDS011;26663;59.302;18.082;2023-09-19T10:34:23;9.02;;;6.60;;
17650;SDS011;26663;59.302;18.082;2023-09-19T10:37:28;7.20;;;6.70;;
17650;SDS011;26663;59.302;18.082;2023-09-19T10:40:34;7.13;;;6.43;;
17650;SDS011;26663;59.302;18.082;2023-09-19T10:43:39;10.70;;;6.65;;
17650;SDS011;26663;59.302;18.082;2023-09-19T10:46:47;7.85;;;7.22;;
17650;SDS011;26663;59.302;18.082;2023-09-19T10:49:52;8.18;;;6.22;;
17650;SDS011;26663;59.302;18.082;2023-09-19T10:52:56;8.95;;;5.93;;
17650;SDS011;26663;59.302;18.082;2023-09-19T10:56:10;9.63;;;5.95;;
17650;SDS011;26663;59.302;18.082;2023-09-19T10:59:19;7.13;;;5.90;;
17650;SDS011;26663;59.302;18.082;2023-09-19T11:02:24;7.88;;;5.65;;
17650;SDS011;26663;59.302;18.082;2023-09-19T11:05:30;5.15;;;4.80;;
17650;SDS011;26663;59.302;18.082;2023-09-19T11:08:52;6.30;;;5.30;;
17650;SDS011;26663;59.302;18.082;2023-09-19T11:12:00;5.65;;;5.00;;
17650;SDS011;26663;59.302;18.082;2023-09-19T11:15:05;6.75;;;4.82;;
17650;SDS011;26663;59.302;18.082;2023-09-19T11:21:53;4.78;;;4.28;;
17650;SDS011;26663;59.302;18.082;2023-09-19T11:28:50;5.60;;;4.45;;
17650;SDS011;26663;59.302;18.082;2023-09-19T11:36:10;5.03;;;4.03;;
17650;SDS011;26663;59.302;18.082;2023-09-19T11:39:25;5.10;;;3.88;;
17650;SDS011;26663;59.302;18.082;2023-09-19T11:42:41;6.93;;;3.90;;
17650;SDS011;26663;59.302;18.082;2023-09-19T11:46:04;4.43;;;3.83;;
17650;SDS011;26663;59.302;18.082;2023-09-19T11:49:09;3.60;;;3.40;;
17650;SDS011;26663;59.302;18.082;2023-09-19T11:52:21;5.55;;;2.40;;
17650;SDS011;26663;59.302;18.082;2023-09-19T11:55:29;2.33;;;2.15;;
17650;SDS011;26663;59.302;18.082;2023-09-19T11:58:34;2.83;;;1.77;;
17650;SDS011;26663;59.302;18.082;2023-09-19T12:01:42;2.95;;;2.08;;
17650;SDS011;26663;59.302;18.082;2023-09-19T12:04:47;2.90;;;1.70;;
17650;SDS011;26663;59.302;18.082;2023-09-19T12:07:52;2.38;;;1.40;;
17650;SDS011;26663;59.302;18.082;2023-09-19T12:10:58;1.98;;;1.75;;
17650;SDS011;26663;59.302;18.082;2023-09-19T12:14:02;3.45;;;1.50;;
17650;SDS011;26663;59.302;18.082;2023-09-19T12:17:06;1.92;;;1.70;;
17650;SDS011;26663;59.302;18.082;2023-09-19T12:20:11;2.28;;;1.60;;
17650;SDS011;26663;59.302;18.082;2023-09-19T12:23:16;5.15;;;1.60;;
17650;SDS011;26663;59.302;18.082;2023-09-19T12:26:23;7.43;;;1.95;;
17650;SDS011;26663;59.302;18.082;2023-09-19T12:29:27;3.80;;;1.70;;
17650;SDS011;26663;59.302;18.082;2023-09-19T12:32:35;3.58;;;1.77;;
17650;SDS011;26663;59.302;18.082;2023-09-19T12:35:39;2.13;;;1.60;;
17650;SDS011;26663;59.302;18.082;2023-09-19T12:38:43;5.53;;;1.98;;
17650;SDS011;26663;59.302;18.082;2023-09-19T12:41:53;3.63;;;2.00;;
17650;SDS011;26663;59.302;18.082;2023-09-19T12:44:57;1.98;;;1.63;;
17650;SDS011;26663;59.302;18.082;2023-09-19T12:48:18;3.08;;;1.83;;
17650;SDS011;26663;59.302;18.082;2023-09-19T12:51:24;2.60;;;1.92;;
17650;SDS011;26663;59.302;18.082;2023-09-19T12:54:38;3.05;;;1.80;;
17650;SDS011;26663;59.302;18.082;2023-09-19T12:57:44;3.00;;;1.80;;
17650;SDS011;26663;59.302;18.082;2023-09-19T13:00:48;1.92;;;1.80;;
17650;SDS011;26663;59.302;18.082;2023-09-19T13:04:13;7.30;;;1.80;;
17650;SDS011;26663;59.302;18.082;2023-09-19T13:07:42;1.70;;;1.60;;
17650;SDS011;26663;59.302;18.082;2023-09-19T13:11:04;4.57;;;1.67;;
17650;SDS011;26663;59.302;18.082;2023-09-19T13:14:18;2.70;;;1.80;;
17650;SDS011;26663;59.302;18.082;2023-09-19T13:17:23;5.68;;;1.85;;
17650;SDS011;26663;59.302;18.082;2023-09-19T13:20:27;3.90;;;1.85;;
17650;SDS011;26663;59.302;18.082;2023-09-19T13:23:34;1.55;;;1.55;;
17650;SDS011;26663;59.302;18.082;2023-09-19T13:26:39;5.30;;;1.90;;
17650;SDS011;26663;59.302;18.082;2023-09-19T13:29:44;3.60;;;1.90;;
17650;SDS011;26663;59.302;18.082;2023-09-19T13:32:48;2.15;;;1.80;;
17650;SDS011;26663;59.302;18.082;2023-09-19T13:35:52;2.00;;;1.77;;
17650;SDS011;26663;59.302;18.082;2023-09-19T13:38:56;1.80;;;1.70;;
17650;SDS011;26663;59.302;18.082;2023-09-19T13:41:59;12.07;;;2.25;;
17650;SDS011;26663;59.302;18.082;2023-09-19T13:45:06;10.35;;;2.28;;
17650;SDS011;26663;59.302;18.082;2023-09-19T13:48:14;10.75;;;2.50;;
17650;SDS011;26663;59.302;18.082;2023-09-19T13:51:18;2.22;;;1.75;;
17650;SDS011;26663;59.302;18.082;2023-09-19T13:54:23;3.25;;;2.10;;
17650;SDS011;26663;59.302;18.082;2023-09-19T13:57:27;1.90;;;1.90;;
17650;SDS011;26663;59.302;18.082;2023-09-19T14:00:33;2.30;;;1.73;;
17650;SDS011;26663;59.302;18.082;2023-09-19T14:03:37;2.60;;;1.50;;
17650;SDS011;26663;59.302;18.082;2023-09-19T14:06:41;2.13;;;1.88;;
17650;SDS011;26663;59.302;18.082;2023-09-19T14:09:46;4.00;;;2.15;;
17650;SDS011;26663;59.302;18.082;2023-09-19T14:12:50;2.58;;;2.35;;
17650;SDS011;26663;59.302;18.082;2023-09-19T14:15:55;2.72;;;1.73;;
17650;SDS011;26663;59.302;18.082;2023-09-19T14:18:58;3.17;;;2.05;;
17650;SDS011;26663;59.302;18.082;2023-09-19T14:22:02;5.05;;;1.98;;
17650;SDS011;26663;59.302;18.082;2023-09-19T14:25:11;2.50;;;1.90;;
17650;SDS011;26663;59.302;18.082;2023-09-19T14:28:15;2.17;;;2.00;;
17650;SDS011;26663;59.302;18.082;2023-09-19T14:31:20;1.88;;;1.88;;
17650;SDS011;26663;59.302;18.082;2023-09-19T14:34:24;2.47;;;2.00;;
17650;SDS011;26663;59.302;18.082;2023-09-19T14:37:28;3.78;;;1.83;;
17650;SDS011;26663;59.302;18.082;2023-09-19T14:40:31;2.85;;;2.08;;
17650;SDS011;26663;59.302;18.082;2023-09-19T14:43:35;1.85;;;1.75;;
17650;SDS011;26663;59.302;18.082;2023-09-19T14:46:43;2.20;;;2.00;;
17650;SDS011;26663;59.302;18.082;2023-09-19T14:49:47;2.92;;;1.90;;
17650;SDS011;26663;59.302;18.082;2023-09-19T14:52:51;3.40;;;1.85;;
17650;SDS011;26663;59.302;18.082;2023-09-19T14:55:56;2.40;;;1.70;;
17650;SDS011;26663;59.302;18.082;2023-09-19T14:59:00;5.65;;;2.15;;
17650;SDS011;26663;59.302;18.082;2023-09-19T15:02:06;2.92;;;1.88;;
17650;SDS011;26663;59.302;18.082;2023-09-19T15:05:10;3.80;;;1.83;;
17650;SDS011;26663;59.302;18.082;2023-09-19T15:08:16;1.85;;;1.73;;
17650;SDS011;26663;59.302;18.082;2023-09-19T15:11:20;3.10;;;1.70;;
17650;SDS011;26663;59.302;18.082;2023-09-19T15:14:24;4.43;;;1.80;;
17650;SDS011;26663;59.302;18.082;2023-09-19T15:17:29;1.77;;;1.67;;
17650;SDS011;26663;59.302;18.082;2023-09-19T15:20:33;2.30;;;1.60;;
17650;SDS011;26663;59.302;18.082;2023-09-19T15:23:38;1.70;;;1.60;;
17650;SDS011;26663;59.302;18.082;2023-09-19T15:26:43;3.47;;;1.63;;
17650;SDS011;26663;59.302;18.082;2023-09-19T15:29:47;4.45;;;2.45;;
17650;SDS011;26663;59.302;18.082;2023-09-19T15:32:52;6.43;;;1.88;;
17650;SDS011;26663;59.302;18.082;2023-09-19T15:36:02;3.63;;;1.83;;
17650;SDS011;26663;59.302;18.082;2023-09-19T15:39:07;5.80;;;1.65;;
17650;SDS011;26663;59.302;18.082;2023-09-19T15:42:13;6.25;;;2.15;;
17650;SDS011;26663;59.302;18.082;2023-09-19T15:45:18;6.78;;;1.67;;
17650;SDS011;26663;59.302;18.082;2023-09-19T15:48:23;1.83;;;1.70;;
17650;SDS011;26663;59.302;18.082;2023-09-19T15:51:28;1.30;;;1.30;;
17650;SDS011;26663;59.302;18.082;2023-09-19T15:54:32;2.83;;;1.33;;
17650;SDS011;26663;59.302;18.082;2023-09-19T15:57:36;2.00;;;1.60;;
17650;SDS011;26663;59.302;18.082;2023-09-19T16:00:40;2.30;;;1.80;;
17650;SDS011;26663;59.302;18.082;2023-09-19T16:03:45;1.35;;;1.35;;
17650;SDS011;26663;59.302;18.082;2023-09-19T16:06:50;1.52;;;1.50;;
17650;SDS011;26663;59.302;18.082;2023-09-19T16:09:54;2.10;;;1.50;;
17650;SDS011;26663;59.302;18.082;2023-09-19T16:12:58;2.45;;;1.45;;
17650;SDS011;26663;59.302;18.082;2023-09-19T16:16:02;3.45;;;1.65;;
17650;SDS011;26663;59.302;18.082;2023-09-19T16:19:07;1.90;;;1.40;;
17650;SDS011;26663;59.302;18.082;2023-09-19T16:22:13;5.25;;;1.60;;
17650;SDS011;26663;59.302;18.082;2023-09-19T16:25:17;1.33;;;1.30;;
17650;SDS011;26663;59.302;18.082;2023-09-19T16:28:21;1.63;;;1.55;;
17650;SDS011;26663;59.302;18.082;2023-09-19T16:31:24;1.90;;;1.60;;
17650;SDS011;26663;59.302;18.082;2023-09-19T16:34:30;1.77;;;1.50;;
17650;SDS011;26663;59.302;18.082;2023-09-19T16:37:34;3.00;;;1.65;;
17650;SDS011;26663;59.302;18.082;2023-09-19T16:40:37;5.63;;;1.50;;
17650;SDS011;26663;59.302;18.082;2023-09-19T16:43:43;1.80;;;1.20;;
17650;SDS011;26663;59.302;18.082;2023-09-19T16:46:48;1.30;;;1.20;;
17650;SDS011;26663;59.302;18.082;2023-09-19T16:49:53;2.33;;;1.10;;
17650;SDS011;26663;59.302;18.082;2023-09-19T16:52:57;1.45;;;1.40;;
17650;SDS011;26663;59.302;18.082;2023-09-19T16:56:01;1.42;;;1.20;;
17650;SDS011;26663;59.302;18.082;2023-09-19T16:59:06;1.45;;;1.45;;
17650;SDS011;26663;59.302;18.082;2023-09-19T17:02:10;1.55;;;1.45;;
17650;SDS011;26663;59.302;18.082;2023-09-19T17:05:15;1.83;;;1.75;;
17650;SDS011;26663;59.302;18.082;2023-09-19T17:08:20;1.52;;;1.52;;
17650;SDS011;26663;59.302;18.082;2023-09-19T17:11:25;1.40;;;1.40;;
17650;SDS011;26663;59.302;18.082;2023-09-19T17:14:29;3.03;;;1.60;;
17650;SDS011;26663;59.302;18.082;2023-09-19T17:17:33;3.00;;;1.70;;
17650;SDS011;26663;59.302;18.082;2023-09-19T17:20:41;2.33;;;1.50;;
17650;SDS011;26663;59.302;18.082;2023-09-19T17:23:45;1.88;;;1.42;;
17650;SDS011;26663;59.302;18.082;2023-09-19T17:26:50;6.63;;;1.30;;
17650;SDS011;26663;59.302;18.082;2023-09-19T17:29:54;1.50;;;1.40;;
17650;SDS011;26663;59.302;18.082;2023-09-19T17:32:58;1.52;;;1.30;;
17650;SDS011;26663;59.302;18.082;2023-09-19T17:36:07;1.20;;;1.20;;
17650;SDS011;26663;59.302;18.082;2023-09-19T17:39:12;1.40;;;1.30;;
17650;SDS011;26663;59.302;18.082;2023-09-19T17:42:17;1.90;;;1.80;;
17650;SDS011;26663;59.302;18.082;2023-09-19T17:45:21;2.15;;;1.40;;
17650;SDS011;26663;59.302;18.082;2023-09-19T17:48:25;1.38;;;1.30;;
17650;SDS011;26663;59.302;18.082;2023-09-19T17:51:30;2.53;;;1.77;;
17650;SDS011;26663;59.302;18.082;2023-09-19T17:54:34;3.08;;;2.20;;
17650;SDS011;26663;59.302;18.082;2023-09-19T17:57:38;4.47;;;2.60;;
17650;SDS011;26663;59.302;18.082;2023-09-19T18:00:42;4.13;;;2.47;;
17650;SDS011;26663;59.302;18.082;2023-09-19T18:03:47;2.75;;;2.33;;
17650;SDS011;26663;59.302;18.082;2023-09-19T18:06:53;2.78;;;2.15;;
17650;SDS011;26663;59.302;18.082;2023-09-19T18:09:56;2.83;;;1.80;;
17650;SDS011;26663;59.302;18.082;2023-09-19T18:13:01;2.03;;;1.83;;
17650;SDS011;26663;59.302;18.082;2023-09-19T18:16:05;1.60;;;1.50;;
17650;SDS011;26663;59.302;18.082;2023-09-19T18:19:10;1.50;;;1.50;;